sensor_id;sensor_type;location;lat;lon;timestamp;P1;durP1;ratioP1;P2;durP2;ratioP2
69953;SDS011;57276;51.364;12.376;2023-07-31T00:01:55;7.03;;;2.00;;
69953;SDS011;57276;51.364;12.376;2023-07-31T00:07:56;6.70;;;1.80;;
69953;SDS011;57276;51.364;12.376;2023-07-31T00:13:58;6.40;;;2.17;;
69953;SDS011;57276;51.364;12.376;2023-07-31T00:20:00;5.88;;;1.85;;
69953;SDS011;57276;51.364;12.376;2023-07-31T00:26:02;5.50;;;2.00;;
69953;SDS011;57276;51.364;12.376;2023-07-31T00:32:03;6.50;;;1.90;;
69953;SDS011;57276;51.364;12.376;2023-07-31T00:38:05;6.03;;;1.98;;
69953;SDS011;57276;51.364;12.376;2023-07-31T00:44:07;4.70;;;2.20;;
69953;SDS011;57276;51.364;12.376;2023-07-31T00:50:08;6.20;;;1.95;;
69953;SDS011;57276;51.364;12.376;2023-07-31T00:56:12;4.50;;;1.60;;
69953;SDS011;57276;51.364;12.376;2023-07-31T01:02:13;6.93;;;2.00;;
69953;SDS011;57276;51.364;12.376;2023-07-31T01:08:18;5.25;;;1.60;;
69953;SDS011;57276;51.364;12.376;2023-07-31T01:14:23;5.67;;;1.67;;
69953;SDS011;57276;51.364;12.376;2023-07-31T01:20:26;4.30;;;1.60;;
69953;SDS011;57276;51.364;12.376;2023-07-31T01:26:29;5.50;;;1.80;;
69953;SDS011;57276;51.364;12.376;2023-07-31T01:32:31;6.20;;;1.70;;
69953;SDS011;57276;51.364;12.376;2023-07-31T01:38:33;5.40;;;1.63;;
69953;SDS011;57276;51.364;12.376;2023-07-31T01:44:36;6.40;;;1.90;;
69953;SDS011;57276;51.364;12.376;2023-07-31T01:50:39;6.95;;;2.13;;
69953;SDS011;57276;51.364;12.376;2023-07-31T01:56:40;7.40;;;2.03;;
69953;SDS011;57276;51.364;12.376;2023-07-31T02:02:42;7.60;;;1.90;;
69953;SDS011;57276;51.364;12.376;2023-07-31T02:08:44;7.22;;;2.22;;
69953;SDS011;57276;51.364;12.376;2023-07-31T02:14:47;6.70;;;2.10;;
69953;SDS011;57276;51.364;12.376;2023-07-31T02:20:51;5.38;;;1.80;;
69953;SDS011;57276;51.364;12.376;2023-07-31T02:26:53;5.73;;;1.93;;
69953;SDS011;57276;51.364;12.376;2023-07-31T02:32:55;5.82;;;2.00;;
69953;SDS011;57276;51.364;12.376;2023-07-31T02:38:56;6.53;;;1.90;;
69953;SDS011;57276;51.364;12.376;2023-07-31T02:44:58;6.10;;;2.20;;
69953;SDS011;57276;51.364;12.376;2023-07-31T02:51:00;5.93;;;1.92;;
69953;SDS011;57276;51.364;12.376;2023-07-31T02:57:02;4.27;;;1.60;;
69953;SDS011;57276;51.364;12.376;2023-07-31T03:03:11;6.43;;;1.90;;
69953;SDS011;57276;51.364;12.376;2023-07-31T03:09:40;5.88;;;2.00;;
69953;SDS011;57276;51.364;12.376;2023-07-31T03:15:42;7.13;;;1.97;;
69953;SDS011;57276;51.364;12.376;2023-07-31T03:21:45;5.25;;;2.03;;
69953;SDS011;57276;51.364;12.376;2023-07-31T03:27:46;7.13;;;2.20;;
69953;SDS011;57276;51.364;12.376;2023-07-31T03:33:48;6.13;;;1.98;;
69953;SDS011;57276;51.364;12.376;2023-07-31T03:39:49;4.10;;;1.90;;
69953;SDS011;57276;51.364;12.376;2023-07-31T03:45:51;5.53;;;1.70;;
69953;SDS011;57276;51.364;12.376;2023-07-31T03:51:53;5.78;;;2.08;;
69953;SDS011;57276;51.364;12.376;2023-07-31T03:57:55;9.03;;;2.20;;
69953;SDS011;57276;51.364;12.376;2023-07-31T04:03:56;5.00;;;1.77;;
69953;SDS011;57276;51.364;12.376;2023-07-31T04:09:58;6.97;;;2.08;;
69953;SDS011;57276;51.364;12.376;2023-07-31T04:15:59;7.70;;;2.30;;
69953;SDS011;57276;51.364;12.376;2023-07-31T04:22:01;7.38;;;2.10;;
69953;SDS011;57276;51.364;12.376;2023-07-31T04:28:03;10.80;;;2.23;;
69953;SDS011;57276;51.364;12.376;2023-07-31T04:34:04;7.10;;;2.10;;
69953;SDS011;57276;51.364;12.376;2023-07-31T04:40:06;5.70;;;2.08;;
69953;SDS011;57276;51.364;12.376;2023-07-31T04:46:08;6.43;;;1.90;;
69953;SDS011;57276;51.364;12.376;2023-07-31T04:52:09;6.60;;;2.20;;
69953;SDS011;57276;51.364;12.376;2023-07-31T04:58:11;9.00;;;2.40;;
69953;SDS011;57276;51.364;12.376;2023-07-31T05:04:13;8.55;;;2.60;;
69953;SDS011;57276;51.364;12.376;2023-07-31T05:10:15;7.32;;;2.72;;
69953;SDS011;57276;51.364;12.376;2023-07-31T05:16:17;6.33;;;2.60;;
69953;SDS011;57276;51.364;12.376;2023-07-31T05:22:19;8.30;;;2.85;;
69953;SDS011;57276;51.364;12.376;2023-07-31T05:28:21;8.13;;;2.80;;
69953;SDS011;57276;51.364;12.376;2023-07-31T05:34:22;7.53;;;2.95;;
69953;SDS011;57276;51.364;12.376;2023-07-31T05:40:24;9.93;;;3.10;;
69953;SDS011;57276;51.364;12.376;2023-07-31T05:46:25;8.13;;;2.83;;
69953;SDS011;57276;51.364;12.376;2023-07-31T05:52:27;7.60;;;2.90;;
69953;SDS011;57276;51.364;12.376;2023-07-31T05:58:30;8.63;;;2.60;;
69953;SDS011;57276;51.364;12.376;2023-07-31T06:04:31;11.05;;;3.55;;
69953;SDS011;57276;51.364;12.376;2023-07-31T06:10:33;8.18;;;3.42;;
69953;SDS011;57276;51.364;12.376;2023-07-31T06:16:36;6.93;;;2.70;;
69953;SDS011;57276;51.364;12.376;2023-07-31T06:22:38;5.57;;;2.63;;
69953;SDS011;57276;51.364;12.376;2023-07-31T06:28:39;9.80;;;2.97;;
69953;SDS011;57276;51.364;12.376;2023-07-31T06:34:42;7.35;;;2.80;;
69953;SDS011;57276;51.364;12.376;2023-07-31T06:40:44;6.85;;;2.80;;
69953;SDS011;57276;51.364;12.376;2023-07-31T06:46:46;6.73;;;2.83;;
69953;SDS011;57276;51.364;12.376;2023-07-31T06:52:49;6.10;;;2.63;;
69953;SDS011;57276;51.364;12.376;2023-07-31T06:58:50;6.07;;;2.60;;
69953;SDS011;57276;51.364;12.376;2023-07-31T07:04:52;7.05;;;2.40;;
69953;SDS011;57276;51.364;12.376;2023-07-31T07:10:53;8.15;;;2.10;;
69953;SDS011;57276;51.364;12.376;2023-07-31T07:16:55;7.70;;;2.50;;
69953;SDS011;57276;51.364;12.376;2023-07-31T07:22:57;7.15;;;2.30;;
69953;SDS011;57276;51.364;12.376;2023-07-31T07:28:58;5.60;;;2.40;;
69953;SDS011;57276;51.364;12.376;2023-07-31T07:35:02;6.53;;;2.20;;
69953;SDS011;57276;51.364;12.376;2023-07-31T07:41:04;6.25;;;2.50;;
69953;SDS011;57276;51.364;12.376;2023-07-31T07:47:05;7.37;;;2.30;;
69953;SDS011;57276;51.364;12.376;2023-07-31T07:53:08;7.38;;;2.40;;
69953;SDS011;57276;51.364;12.376;2023-07-31T07:59:09;5.83;;;2.53;;
69953;SDS011;57276;51.364;12.376;2023-07-31T08:05:12;6.30;;;2.20;;
69953;SDS011;57276;51.364;12.376;2023-07-31T08:11:13;6.70;;;2.47;;
69953;SDS011;57276;51.364;12.376;2023-07-31T08:17:15;7.50;;;2.30;;
69953;SDS011;57276;51.364;12.376;2023-07-31T08:23:16;8.73;;;2.50;;
69953;SDS011;57276;51.364;12.376;2023-07-31T08:29:18;6.67;;;2.63;;
69953;SDS011;57276;51.364;12.376;2023-07-31T08:35:19;6.75;;;2.50;;
69953;SDS011;57276;51.364;12.376;2023-07-31T08:41:22;5.32;;;2.20;;
69953;SDS011;57276;51.364;12.376;2023-07-31T08:47:24;8.20;;;2.60;;
69953;SDS011;57276;51.364;12.376;2023-07-31T08:53:26;6.32;;;2.60;;
69953;SDS011;57276;51.364;12.376;2023-07-31T08:59:31;6.57;;;2.47;;
69953;SDS011;57276;51.364;12.376;2023-07-31T09:05:32;6.95;;;2.22;;
69953;SDS011;57276;51.364;12.376;2023-07-31T09:11:36;7.28;;;2.20;;
69953;SDS011;57276;51.364;12.376;2023-07-31T09:17:38;6.60;;;2.20;;
69953;SDS011;57276;51.364;12.376;2023-07-31T09:23:46;5.40;;;2.10;;
69953;SDS011;57276;51.364;12.376;2023-07-31T09:30:00;6.00;;;2.20;;
69953;SDS011;57276;51.364;12.376;2023-07-31T09:36:04;6.95;;;2.40;;
69953;SDS011;57276;51.364;12.376;2023-07-31T09:42:06;6.88;;;2.40;;
69953;SDS011;57276;51.364;12.376;2023-07-31T09:48:14;6.80;;;2.10;;
69953;SDS011;57276;51.364;12.376;2023-07-31T09:54:19;5.97;;;2.42;;
69953;SDS011;57276;51.364;12.376;2023-07-31T10:00:24;6.63;;;2.30;;
69953;SDS011;57276;51.364;12.376;2023-07-31T10:06:29;6.65;;;2.50;;
69953;SDS011;57276;51.364;12.376;2023-07-31T10:12:32;5.93;;;2.40;;
69953;SDS011;57276;51.364;12.376;2023-07-31T10:18:35;5.77;;;2.40;;
69953;SDS011;57276;51.364;12.376;2023-07-31T10:24:37;6.10;;;2.63;;
69953;SDS011;57276;51.364;12.376;2023-07-31T10:30:38;6.73;;;2.20;;
69953;SDS011;57276;51.364;12.376;2023-07-31T10:36:40;6.20;;;2.38;;
69953;SDS011;57276;51.364;12.376;2023-07-31T10:42:46;6.68;;;2.47;;
69953;SDS011;57276;51.364;12.376;2023-07-31T10:48:49;5.37;;;2.43;;
69953;SDS011;57276;51.364;12.376;2023-07-31T10:55:14;7.13;;;2.45;;
69953;SDS011;57276;51.364;12.376;2023-07-31T11:01:16;5.50;;;2.20;;
69953;SDS011;57276;51.364;12.376;2023-07-31T11:07:20;6.90;;;2.63;;
69953;SDS011;57276;51.364;12.376;2023-07-31T11:13:22;6.38;;;2.08;;
69953;SDS011;57276;51.364;12.376;2023-07-31T11:19:24;5.07;;;2.17;;
69953;SDS011;57276;51.364;12.376;2023-07-31T11:25:28;5.15;;;2.33;;
69953;SDS011;57276;51.364;12.376;2023-07-31T11:31:29;6.97;;;2.53;;
69953;SDS011;57276;51.364;12.376;2023-07-31T11:37:43;5.88;;;2.50;;
69953;SDS011;57276;51.364;12.376;2023-07-31T11:43:45;5.32;;;2.50;;
69953;SDS011;57276;51.364;12.376;2023-07-31T11:49:47;6.53;;;2.90;;
69953;SDS011;57276;51.364;12.376;2023-07-31T11:55:50;5.57;;;2.65;;
69953;SDS011;57276;51.364;12.376;2023-07-31T12:01:52;6.80;;;2.80;;
69953;SDS011;57276;51.364;12.376;2023-07-31T12:07:55;6.90;;;3.13;;
69953;SDS011;57276;51.364;12.376;2023-07-31T12:13:56;6.68;;;2.63;;
69953;SDS011;57276;51.364;12.376;2023-07-31T12:19:58;5.40;;;2.60;;
69953;SDS011;57276;51.364;12.376;2023-07-31T12:26:12;6.32;;;3.03;;
69953;SDS011;57276;51.364;12.376;2023-07-31T12:32:23;7.63;;;2.63;;
69953;SDS011;57276;51.364;12.376;2023-07-31T12:38:31;7.35;;;2.92;;
69953;SDS011;57276;51.364;12.376;2023-07-31T12:44:33;6.55;;;2.72;;
69953;SDS011;57276;51.364;12.376;2023-07-31T12:50:35;8.00;;;2.87;;
69953;SDS011;57276;51.364;12.376;2023-07-31T12:56:38;7.43;;;3.40;;
69953;SDS011;57276;51.364;12.376;2023-07-31T13:02:40;5.70;;;3.00;;
69953;SDS011;57276;51.364;12.376;2023-07-31T13:08:41;6.10;;;2.97;;
69953;SDS011;57276;51.364;12.376;2023-07-31T13:14:43;7.20;;;2.88;;
69953;SDS011;57276;51.364;12.376;2023-07-31T13:20:45;7.13;;;3.03;;
69953;SDS011;57276;51.364;12.376;2023-07-31T13:26:46;5.38;;;2.42;;
69953;SDS011;57276;51.364;12.376;2023-07-31T13:32:48;6.20;;;2.20;;
69953;SDS011;57276;51.364;12.376;2023-07-31T13:38:49;7.35;;;2.75;;
69953;SDS011;57276;51.364;12.376;2023-07-31T13:44:51;5.82;;;2.40;;
69953;SDS011;57276;51.364;12.376;2023-07-31T13:50:53;7.43;;;2.30;;
69953;SDS011;57276;51.364;12.376;2023-07-31T13:56:55;5.60;;;2.35;;
69953;SDS011;57276;51.364;12.376;2023-07-31T14:02:56;5.30;;;2.30;;
69953;SDS011;57276;51.364;12.376;2023-07-31T14:08:58;5.72;;;2.30;;
69953;SDS011;57276;51.364;12.376;2023-07-31T14:14:59;8.75;;;2.47;;
69953;SDS011;57276;51.364;12.376;2023-07-31T14:21:01;5.50;;;2.00;;
69953;SDS011;57276;51.364;12.376;2023-07-31T14:27:02;6.25;;;2.30;;
69953;SDS011;57276;51.364;12.376;2023-07-31T14:33:04;4.87;;;2.10;;
69953;SDS011;57276;51.364;12.376;2023-07-31T14:39:06;4.70;;;2.13;;
69953;SDS011;57276;51.364;12.376;2023-07-31T14:45:08;8.20;;;2.30;;
69953;SDS011;57276;51.364;12.376;2023-07-31T14:51:11;4.83;;;1.90;;
69953;SDS011;57276;51.364;12.376;2023-07-31T14:57:13;5.35;;;1.95;;
69953;SDS011;57276;51.364;12.376;2023-07-31T15:03:14;4.43;;;1.83;;
69953;SDS011;57276;51.364;12.376;2023-07-31T15:09:16;5.18;;;2.10;;
69953;SDS011;57276;51.364;12.376;2023-07-31T15:15:17;4.53;;;1.80;;
69953;SDS011;57276;51.364;12.376;2023-07-31T15:21:19;4.43;;;1.70;;
69953;SDS011;57276;51.364;12.376;2023-07-31T15:27:20;6.22;;;2.10;;
69953;SDS011;57276;51.364;12.376;2023-07-31T15:33:22;7.67;;;2.30;;
69953;SDS011;57276;51.364;12.376;2023-07-31T15:39:23;5.47;;;2.00;;
69953;SDS011;57276;51.364;12.376;2023-07-31T15:45:25;7.07;;;2.30;;
69953;SDS011;57276;51.364;12.376;2023-07-31T15:51:27;7.47;;;2.30;;
69953;SDS011;57276;51.364;12.376;2023-07-31T15:57:28;6.07;;;2.10;;
69953;SDS011;57276;51.364;12.376;2023-07-31T16:03:31;6.23;;;2.80;;
69953;SDS011;57276;51.364;12.376;2023-07-31T16:09:33;5.07;;;2.17;;
69953;SDS011;57276;51.364;12.376;2023-07-31T16:15:35;5.50;;;2.55;;
69953;SDS011;57276;51.364;12.376;2023-07-31T16:21:36;6.17;;;2.57;;
69953;SDS011;57276;51.364;12.376;2023-07-31T16:27:38;6.45;;;2.50;;
69953;SDS011;57276;51.364;12.376;2023-07-31T16:33:40;6.13;;;2.47;;
69953;SDS011;57276;51.364;12.376;2023-07-31T16:39:41;8.63;;;2.70;;
69953;SDS011;57276;51.364;12.376;2023-07-31T16:45:48;6.82;;;2.85;;
69953;SDS011;57276;51.364;12.376;2023-07-31T16:51:51;6.20;;;2.60;;
69953;SDS011;57276;51.364;12.376;2023-07-31T16:57:52;7.20;;;2.42;;
69953;SDS011;57276;51.364;12.376;2023-07-31T17:03:57;6.00;;;2.60;;
69953;SDS011;57276;51.364;12.376;2023-07-31T17:10:01;8.57;;;2.45;;
69953;SDS011;57276;51.364;12.376;2023-07-31T17:16:03;8.85;;;2.70;;
69953;SDS011;57276;51.364;12.376;2023-07-31T17:22:04;5.67;;;2.60;;
69953;SDS011;57276;51.364;12.376;2023-07-31T17:28:06;8.38;;;2.78;;
69953;SDS011;57276;51.364;12.376;2023-07-31T17:34:08;6.93;;;2.70;;
69953;SDS011;57276;51.364;12.376;2023-07-31T17:40:11;6.80;;;2.75;;
69953;SDS011;57276;51.364;12.376;2023-07-31T17:46:14;6.07;;;2.40;;
69953;SDS011;57276;51.364;12.376;2023-07-31T17:52:16;6.00;;;2.20;;
69953;SDS011;57276;51.364;12.376;2023-07-31T17:58:17;8.65;;;2.53;;
69953;SDS011;57276;51.364;12.376;2023-07-31T18:04:19;5.70;;;2.30;;
69953;SDS011;57276;51.364;12.376;2023-07-31T18:10:21;6.63;;;2.60;;
69953;SDS011;57276;51.364;12.376;2023-07-31T18:16:22;6.65;;;2.42;;
69953;SDS011;57276;51.364;12.376;2023-07-31T18:22:24;8.27;;;2.63;;
69953;SDS011;57276;51.364;12.376;2023-07-31T18:28:26;7.72;;;2.60;;
69953;SDS011;57276;51.364;12.376;2023-07-31T18:34:29;5.27;;;2.70;;
69953;SDS011;57276;51.364;12.376;2023-07-31T18:40:32;7.22;;;2.80;;
69953;SDS011;57276;51.364;12.376;2023-07-31T18:46:34;5.80;;;2.67;;
69953;SDS011;57276;51.364;12.376;2023-07-31T18:52:36;7.87;;;3.13;;
69953;SDS011;57276;51.364;12.376;2023-07-31T18:58:38;8.30;;;2.90;;
69953;SDS011;57276;51.364;12.376;2023-07-31T19:04:40;7.70;;;3.00;;
69953;SDS011;57276;51.364;12.376;2023-07-31T19:10:41;8.50;;;2.78;;
69953;SDS011;57276;51.364;12.376;2023-07-31T19:16:43;7.68;;;2.75;;
69953;SDS011;57276;51.364;12.376;2023-07-31T19:22:45;7.43;;;3.27;;
69953;SDS011;57276;51.364;12.376;2023-07-31T19:28:46;7.15;;;3.03;;
69953;SDS011;57276;51.364;12.376;2023-07-31T19:34:48;6.57;;;2.50;;
69953;SDS011;57276;51.364;12.376;2023-07-31T19:40:49;7.95;;;2.83;;
69953;SDS011;57276;51.364;12.376;2023-07-31T19:46:51;8.00;;;3.10;;
69953;SDS011;57276;51.364;12.376;2023-07-31T19:52:53;5.70;;;2.60;;
69953;SDS011;57276;51.364;12.376;2023-07-31T19:58:54;8.65;;;3.00;;
69953;SDS011;57276;51.364;12.376;2023-07-31T20:04:56;9.07;;;2.90;;
69953;SDS011;57276;51.364;12.376;2023-07-31T20:10:58;8.13;;;3.35;;
69953;SDS011;57276;51.364;12.376;2023-07-31T20:17:01;21.20;;;3.45;;
69953;SDS011;57276;51.364;12.376;2023-07-31T20:23:02;7.90;;;2.80;;
69953;SDS011;57276;51.364;12.376;2023-07-31T20:29:06;7.95;;;3.15;;
69953;SDS011;57276;51.364;12.376;2023-07-31T20:35:09;7.57;;;2.60;;
69953;SDS011;57276;51.364;12.376;2023-07-31T20:41:10;8.93;;;3.25;;
69953;SDS011;57276;51.364;12.376;2023-07-31T20:47:12;6.80;;;2.90;;
69953;SDS011;57276;51.364;12.376;2023-07-31T20:53:13;5.77;;;2.73;;
69953;SDS011;57276;51.364;12.376;2023-07-31T20:59:15;5.90;;;2.45;;
69953;SDS011;57276;51.364;12.376;2023-07-31T21:05:17;8.10;;;2.47;;
69953;SDS011;57276;51.364;12.376;2023-07-31T21:11:18;6.38;;;2.70;;
69953;SDS011;57276;51.364;12.376;2023-07-31T21:17:20;8.00;;;2.67;;
69953;SDS011;57276;51.364;12.376;2023-07-31T21:23:21;6.20;;;2.50;;
69953;SDS011;57276;51.364;12.376;2023-07-31T21:29:23;6.57;;;2.63;;
69953;SDS011;57276;51.364;12.376;2023-07-31T21:35:24;5.40;;;2.20;;
69953;SDS011;57276;51.364;12.376;2023-07-31T21:41:26;6.25;;;2.40;;
69953;SDS011;57276;51.364;12.376;2023-07-31T21:47:28;7.85;;;2.58;;
69953;SDS011;57276;51.364;12.376;2023-07-31T21:53:30;5.43;;;2.20;;
69953;SDS011;57276;51.364;12.376;2023-07-31T21:59:31;6.93;;;2.63;;
69953;SDS011;57276;51.364;12.376;2023-07-31T22:05:33;6.07;;;2.30;;
69953;SDS011;57276;51.364;12.376;2023-07-31T22:11:34;6.80;;;2.40;;
69953;SDS011;57276;51.364;12.376;2023-07-31T22:17:36;7.55;;;2.75;;
69953;SDS011;57276;51.364;12.376;2023-07-31T22:23:37;7.67;;;2.60;;
69953;SDS011;57276;51.364;12.376;2023-07-31T22:29:40;6.90;;;2.67;;
69953;SDS011;57276;51.364;12.376;2023-07-31T22:35:43;7.43;;;2.90;;
69953;SDS011;57276;51.364;12.376;2023-07-31T22:41:44;7.38;;;3.10;;
69953;SDS011;57276;51.364;12.376;2023-07-31T22:47:46;6.75;;;3.00;;
69953;SDS011;57276;51.364;12.376;2023-07-31T22:53:49;7.53;;;2.63;;
69953;SDS011;57276;51.364;12.376;2023-07-31T22:59:53;5.85;;;2.80;;
69953;SDS011;57276;51.364;12.376;2023-07-31T23:05:55;6.43;;;3.20;;
69953;SDS011;57276;51.364;12.376;2023-07-31T23:11:57;8.25;;;2.92;;
69953;SDS011;57276;51.364;12.376;2023-07-31T23:17:58;6.60;;;3.22;;
69953;SDS011;57276;51.364;12.376;2023-07-31T23:24:00;6.63;;;3.20;;
69953;SDS011;57276;51.364;12.376;2023-07-31T23:30:02;11.00;;;3.30;;
69953;SDS011;57276;51.364;12.376;2023-07-31T23:36:07;6.63;;;3.47;;
69953;SDS011;57276;51.364;12.376;2023-07-31T23:42:09;10.63;;;3.50;;
69953;SDS011;57276;51.364;12.376;2023-07-31T23:48:10;8.25;;;3.50;;
69953;SDS011;57276;51.364;12.376;2023-07-31T23:54:12;7.43;;;3.63;;
